Time;durP1;ratioP1;P1;durP2;ratioP2;P2;SDS_P1;SDS_P2;PMS_P1;PMS_P2;Temp;Humidity;BMP_temperature;BMP_pressure;BME280_temperature;BME280_humidity;BME280_pressure;Samples;Min_cycle;Max_cycle;Signal;HPM_P1;HPM_P2
2022/05/03 00:00:24;;;;;;;2.05;1.50;;;;;;;14.69;56.36;99646.75;4290762;33;33400;-72
2022/05/03 00:03:14;;;;;;;2.22;1.50;;;;;;;14.73;56.53;99640.47;4303481;33;33478;-72
2022/05/03 00:06:25;;;;;;;1.85;1.40;;;;;;;14.33;57.43;99636.72;4303798;33;34417;-73
2022/05/03 00:09:02;;;;;;;2.17;1.50;;;;;;;14.32;57.51;99639.75;4267770;33;34508;-72
2022/05/03 00:11:33;;;;;;;1.65;1.30;;;;;;;14.28;57.34;99644.09;4290521;33;34295;-73
2022/05/03 00:14:49;;;;;;;3.70;1.60;;;;;;;14.28;57.46;99642.19;4289736;33;34030;-72
2022/05/03 00:17:18;;;;;;;1.95;1.42;;;;;;;14.08;58.50;99645.78;4288087;33;35052;-71
2022/05/03 00:19:47;;;;;;;2.35;1.50;;;;;;;14.39;57.46;99640.25;4303279;33;34882;-72
2022/05/03 00:22:15;;;;;;;1.80;1.42;;;;;;;14.46;57.04;99635.31;4290177;33;34204;-72
2022/05/03 00:24:42;;;;;;;2.40;1.50;;;;;;;14.27;57.69;99639.72;4302975;33;34495;-73
2022/05/03 00:27:10;;;;;;;2.45;2.00;;;;;;;14.48;57.31;99640.50;4290167;33;33808;-72
2022/05/03 00:29:37;;;;;;;2.08;1.58;;;;;;;14.42;57.67;99634.22;4290004;33;33808;-73
2022/05/03 00:32:05;;;;;;;2.17;1.58;;;;;;;14.29;58.20;99637.53;4290437;33;33143;-73
2022/05/03 00:34:33;;;;;;;2.62;1.75;;;;;;;14.42;57.71;99639.69;4302823;33;34802;-73
2022/05/03 00:37:00;;;;;;;2.65;1.70;;;;;;;14.34;57.82;99629.34;4303409;33;34297;-71
2022/05/03 00:39:28;;;;;;;3.12;1.92;;;;;;;13.98;59.08;99621.22;4303043;33;34686;-73
2022/05/03 00:42:19;;;;;;;2.15;1.52;;;;;;;14.02;58.93;99622.31;4302888;33;34678;-73
2022/05/03 00:45:09;;;;;;;1.90;1.42;;;;;;;13.98;59.13;99623.16;4303407;33;33914;-73
2022/05/03 00:47:51;;;;;;;1.85;1.58;;;;;;;14.35;58.12;99625.53;4289525;33;34549;-72
2022/05/03 00:50:42;;;;;;;2.33;1.60;;;;;;;14.27;58.67;99626.91;4289846;33;34013;-72
2022/05/03 00:53:19;;;;;;;2.03;1.65;;;;;;;14.39;58.54;99629.34;4303509;33;33516;-72
2022/05/03 00:56:08;;;;;;;2.72;1.42;;;;;;;14.26;58.67;99627.19;4290124;33;34784;-71
2022/05/03 00:58:49;;;;;;;1.85;1.40;;;;;;;14.28;58.55;99630.47;4302480;33;34293;-72
2022/05/03 01:01:38;;;;;;;2.55;1.83;;;;;;;13.98;59.40;99623.16;4302086;33;33546;-71
2022/05/03 01:04:39;;;;;;;1.70;1.30;;;;;;;14.29;58.72;99623.91;4302653;33;33275;-72
2022/05/03 01:07:24;;;;;;;2.35;1.70;;;;;;;14.36;58.65;99632.59;4303014;33;33829;-71
2022/05/03 01:10:09;;;;;;;2.22;1.58;;;;;;;14.21;58.70;99622.56;4303107;33;34316;-73
2022/05/03 01:13:10;;;;;;;1.77;1.40;;;;;;;14.45;58.43;99630.97;4289642;33;34829;-73
2022/05/03 01:15:39;;;;;;;1.87;1.35;;;;;;;14.46;58.25;99629.84;4276013;33;33156;-73
2022/05/03 01:18:06;;;;;;;1.83;1.48;;;;;;;14.44;58.19;99623.84;4302702;33;34130;-73
2022/05/03 01:20:53;;;;;;;1.83;1.60;;;;;;;14.31;58.55;99632.63;4302832;33;33920;-73
2022/05/03 01:23:50;;;;;;;2.15;1.60;;;;;;;14.04;59.64;99628.31;4302455;33;34417;-71
2022/05/03 01:26:39;;;;;;;2.30;1.58;;;;;;;13.73;60.87;99625.59;4302816;33;34480;-73
2022/05/03 01:29:18;;;;;;;1.80;1.48;;;;;;;13.74;60.95;99629.97;4302232;33;34037;-71
2022/05/03 01:31:47;;;;;;;1.75;1.40;;;;;;;13.66;61.18;99625.03;4302479;33;35161;-72
2022/05/03 01:34:19;;;;;;;1.80;1.50;;;;;;;13.70;60.96;99634.31;4289668;33;34924;-73
2022/05/03 01:36:57;;;;;;;2.72;1.75;;;;;;;13.80;60.63;99638.13;4302525;33;33450;-72
2022/05/03 01:39:31;;;;;;;1.60;1.23;;;;;;;14.03;59.69;99631.31;4302630;33;34845;-73
2022/05/03 01:42:05;;;;;;;2.08;1.50;;;;;;;13.94;59.81;99633.78;4302380;33;34436;-72
2022/05/03 01:44:40;;;;;;;2.20;1.40;;;;;;;14.05;59.35;99638.13;4289557;33;34060;-72
2022/05/03 01:47:17;;;;;;;2.28;1.65;;;;;;;14.18;58.75;99633.19;4288908;33;34140;-72
2022/05/03 01:50:20;;;;;;;2.87;1.45;;;;;;;14.19;58.78;99630.22;4289496;33;33807;-73
2022/05/03 01:53:19;;;;;;;2.17;1.77;;;;;;;14.21;58.92;99633.47;4302179;33;35067;-72
2022/05/03 01:56:00;;;;;;;1.90;1.48;;;;;;;14.02;59.62;99627.78;4302576;33;34357;-71
2022/05/03 01:58:36;;;;;;;1.58;1.25;;;;;;;13.65;60.75;99628.88;4302418;33;33898;-71
2022/05/03 02:01:10;;;;;;;1.58;1.35;;;;;;;13.43;61.47;99631.03;4287819;33;33951;-72
2022/05/03 02:04:07;;;;;;;2.58;1.62;;;;;;;13.24;62.06;99636.97;4275149;33;33871;-72
2022/05/03 02:07:02;;;;;;;1.73;1.40;;;;;;;13.64;60.96;99629.94;4250497;33;33677;-73
2022/05/03 02:10:03;;;;;;;1.95;1.50;;;;;;;13.28;61.56;99629.94;4301496;33;33523;-73
2022/05/03 02:12:31;;;;;;;1.58;1.27;;;;;;;13.53;60.77;99628.31;4302986;33;33633;-73
2022/05/03 02:15:06;;;;;;;1.67;1.35;;;;;;;13.38;61.22;99629.13;4291206;33;35088;-73
2022/05/03 02:18:12;;;;;;;1.48;1.37;;;;;;;13.33;61.42;99634.56;4290830;33;34063;-72
2022/05/03 02:20:49;;;;;;;3.10;1.65;;;;;;;13.61;60.58;99626.97;4276585;33;34354;-72
2022/05/03 02:23:35;;;;;;;1.77;1.50;;;;;;;13.41;60.87;99630.47;4303970;33;34053;-70
2022/05/03 02:26:14;;;;;;;2.45;1.50;;;;;;;13.63;60.28;99631.06;4303781;33;34946;-73
2022/05/03 02:28:48;;;;;;;2.33;1.45;;;;;;;13.78;59.80;99629.41;4290618;33;34273;-73
2022/05/03 02:31:27;;;;;;;1.87;1.50;;;;;;;13.15;61.95;99633.13;4290784;33;34087;-72
2022/05/03 02:34:23;;;;;;;1.73;1.45;;;;;;;13.29;61.54;99628.81;4290789;33;34932;-73
2022/05/03 02:37:06;;;;;;;1.90;1.42;;;;;;;13.15;62.09;99630.38;4290959;33;34418;-72
2022/05/03 02:39:38;;;;;;;2.05;1.33;;;;;;;13.00;62.55;99633.06;4304017;33;34209;-72
2022/05/03 02:42:07;;;;;;;1.77;1.60;;;;;;;13.00;62.63;99631.19;4303892;33;33545;-73
2022/05/03 02:44:34;;;;;;;1.48;1.25;;;;;;;13.08;62.12;99632.56;4290725;33;34732;-72
2022/05/03 02:47:11;;;;;;;1.85;1.33;;;;;;;13.26;61.10;99637.53;4290828;33;35018;-72
2022/05/03 02:49:56;;;;;;;2.45;1.40;;;;;;;12.96;62.17;99635.53;4303838;33;34275;-72
2022/05/03 02:52:29;;;;;;;2.53;1.70;;;;;;;12.96;62.34;99631.97;4290552;33;34405;-73
2022/05/03 02:55:15;;;;;;;1.83;1.40;;;;;;;13.21;61.00;99626.59;4290486;33;34201;-72
2022/05/03 02:57:55;;;;;;;1.62;1.48;;;;;;;13.30;60.67;99638.66;4303508;33;33813;-73
2022/05/03 03:03:14;;;;;;;2.53;1.70;;;;;;;13.25;60.69;99638.59;4292832;33;34478;-73
2022/05/03 03:05:44;;;;;;;2.05;1.60;;;;;;;13.10;60.85;99633.91;4303958;33;34636;-72
2022/05/03 03:08:12;;;;;;;2.20;1.40;;;;;;;12.93;61.31;99636.03;4303155;33;35044;-72
2022/05/03 03:10:51;;;;;;;2.15;1.37;;;;;;;12.86;61.60;99632.75;4290726;33;34626;-73
2022/05/03 03:13:31;;;;;;;2.22;1.50;;;;;;;12.88;61.64;99638.75;4303455;33;34023;-73
2022/05/03 03:15:58;;;;;;;1.65;1.35;;;;;;;12.92;61.37;99635.22;4303922;33;34731;-71
2022/05/03 03:18:26;;;;;;;2.50;1.67;;;;;;;12.71;61.94;99638.97;4303213;33;34202;-72
2022/05/03 03:20:56;;;;;;;2.45;1.50;;;;;;;13.04;60.72;99632.25;4290666;33;33747;-72
2022/05/03 03:23:30;;;;;;;2.03;1.70;;;;;;;12.64;62.03;99624.78;4290332;33;33432;-73
2022/05/03 03:25:58;;;;;;;2.08;1.67;;;;;;;12.58;62.45;99628.56;4303542;33;33912;-72
2022/05/03 03:28:28;;;;;;;2.17;1.60;;;;;;;12.67;62.12;99627.78;4303684;33;34238;-73
2022/05/03 03:30:58;;;;;;;2.10;1.58;;;;;;;12.78;61.63;99634.09;4290105;33;34022;-73
2022/05/03 03:33:32;;;;;;;2.17;1.58;;;;;;;12.58;62.22;99634.81;4290267;33;33793;-77
2022/05/03 03:36:02;;;;;;;2.33;1.80;;;;;;;12.31;63.13;99634.97;4303708;33;34209;-75
2022/05/03 03:38:37;;;;;;;1.80;1.50;;;;;;;12.69;61.83;99635.69;4290577;33;34953;-74
2022/05/03 03:41:04;;;;;;;1.80;1.17;;;;;;;12.75;61.71;99640.06;4303299;33;34288;-72
2022/05/03 03:43:31;;;;;;;2.22;1.60;;;;;;;12.47;62.44;99636.66;4303558;33;34290;-73
2022/05/03 03:45:59;;;;;;;2.35;1.50;;;;;;;12.42;62.86;99644.81;4303450;33;33917;-75
2022/05/03 03:48:26;;;;;;;2.83;1.80;;;;;;;12.70;62.24;99640.06;4303411;33;34227;-76
2022/05/03 03:51:13;;;;;;;3.25;1.73;;;;;;;12.75;62.08;99640.06;4303479;33;34687;-73
2022/05/03 03:53:41;;;;;;;4.28;1.80;;;;;;;12.62;62.58;99637.84;4289114;33;33330;-73
2022/05/03 03:56:10;;;;;;;2.03;1.60;;;;;;;12.87;61.57;99643.41;4303666;33;33666;-71
2022/05/03 03:58:37;;;;;;;2.37;1.58;;;;;;;12.52;63.01;99649.47;4303217;33;34183;-74
2022/05/03 04:01:05;;;;;;;1.95;1.52;;;;;;;12.30;64.78;99653.16;4290690;33;34041;-75
2022/05/03 04:03:33;;;;;;;2.55;1.70;;;;;;;12.77;63.81;99647.97;4303172;33;34148;-72
2022/05/03 04:06:00;;;;;;;2.72;1.70;;;;;;;13.22;62.36;99651.94;4290563;33;34760;-73
2022/05/03 04:08:28;;;;;;;3.45;2.20;;;;;;;13.29;62.25;99653.34;4303440;33;33788;-73
2022/05/03 04:10:55;;;;;;;3.65;2.10;;;;;;;13.82;60.43;99658.59;4303429;33;34677;-74
2022/05/03 04:13:23;;;;;;;3.95;2.42;;;;;;;14.48;57.55;99646.78;4303541;33;33560;-73
2022/05/03 04:15:51;;;;;;;6.68;3.40;;;;;;;14.68;57.55;99650.56;4303377;33;33908;-74
2022/05/03 04:18:19;;;;;;;6.10;3.20;;;;;;;15.03;55.99;99651.53;4290170;33;34519;-73
2022/05/03 04:20:46;;;;;;;6.07;2.67;;;;;;;15.39;54.94;99652.94;4303352;33;33994;-74
2022/05/03 04:23:21;;;;;;;3.97;2.37;;;;;;;15.23;55.21;99656.09;4303788;33;34209;-74
2022/05/03 04:25:48;;;;;;;4.05;2.45;;;;;;;14.33;57.70;99655.81;4290325;33;35269;-72
2022/05/03 04:28:15;;;;;;;4.85;2.87;;;;;;;14.23;57.87;99655.00;4298888;33;34264;-70
2022/05/03 04:30:43;;;;;;;4.47;2.47;;;;;;;14.19;59.55;99656.66;4303332;33;34117;-78
2022/05/03 04:33:12;;;;;;;2.78;1.92;;;;;;;15.11;57.68;99654.47;4302774;33;33792;-76
2022/05/03 04:35:39;;;;;;;2.50;1.92;;;;;;;15.17;55.72;99658.81;4297138;33;33747;-64
2022/05/03 04:38:07;;;;;;;2.62;1.90;;;;;;;16.04;52.43;99662.09;4302738;33;34258;-71
2022/05/03 04:40:35;;;;;;;2.60;1.77;;;;;;;16.20;52.03;99663.59;4302767;33;33553;-69
2022/05/03 04:43:02;;;;;;;2.53;1.60;;;;;;;16.54;52.89;99662.69;4303108;33;34292;-71
2022/05/03 04:45:30;;;;;;;2.45;1.77;;;;;;;17.29;50.22;99664.00;4302243;33;34781;-72
2022/05/03 04:47:58;;;;;;;3.62;2.10;;;;;;;17.75;48.23;99655.91;4301878;33;34078;-71
2022/05/03 04:50:25;;;;;;;2.33;1.85;;;;;;;18.15;47.16;99661.06;4301778;33;33868;-69
2022/05/03 04:52:53;;;;;;;2.12;1.80;;;;;;;18.55;45.78;99662.25;4302424;33;33578;-72
2022/05/03 04:55:20;;;;;;;1.95;1.42;;;;;;;19.09;44.68;99658.97;4301870;33;34306;-67
2022/05/03 04:57:49;;;;;;;3.40;1.70;;;;;;;19.51;43.21;99665.22;4302566;33;33867;-72
2022/05/03 05:00:17;;;;;;;2.08;1.55;;;;;;;19.97;42.67;99667.72;4302543;33;34215;-72
2022/05/03 05:02:44;;;;;;;1.45;1.33;;;;;;;20.41;41.49;99676.22;4302518;33;33892;-72
2022/05/03 05:05:12;;;;;;;1.70;1.48;;;;;;;20.02;44.22;99675.03;4302373;33;34114;-72
2022/05/03 05:07:39;;;;;;;1.95;1.40;;;;;;;20.21;43.73;99681.16;4302737;33;34745;-72
2022/05/03 05:10:27;;;;;;;2.30;1.50;;;;;;;20.29;44.11;99671.31;4300786;33;34107;-68
2022/05/03 05:12:54;;;;;;;1.37;1.12;;;;;;;20.26;42.74;99677.47;4302323;33;33986;-69
2022/05/03 05:15:24;;;;;;;1.73;1.60;;;;;;;20.21;43.41;99683.09;4302281;33;34396;-66
2022/05/03 05:17:55;;;;;;;2.55;1.48;;;;;;;20.47;43.20;99686.00;4302489;33;33931;-71
2022/05/03 05:20:24;;;;;;;2.40;1.45;;;;;;;20.61;41.15;99677.69;4301749;33;34562;-69
2022/05/03 05:22:52;;;;;;;2.08;1.45;;;;;;;20.96;40.95;99670.34;4302341;33;33465;-69
2022/05/03 05:25:39;;;;;;;1.70;1.50;;;;;;;21.21;41.35;99670.69;4301388;33;33826;-70
2022/05/03 05:28:07;;;;;;;1.98;1.50;;;;;;;22.27;39.84;99678.72;4302120;33;34084;-68
2022/05/03 05:30:34;;;;;;;1.10;1.00;;;;;;;23.09;38.00;99673.84;4302192;33;33806;-70
2022/05/03 05:33:01;;;;;;;1.00;0.90;;;;;;;24.12;36.06;99669.78;4301902;33;33523;-70
2022/05/03 05:35:29;;;;;;;1.58;1.17;;;;;;;24.13;36.06;99665.87;4301327;33;33377;-70
2022/05/03 05:37:56;;;;;;;1.37;1.20;;;;;;;24.40;34.88;99669.19;4301090;33;34606;-70
2022/05/03 05:40:24;;;;;;;1.52;1.20;;;;;;;24.19;35.43;99672.00;4301657;33;33971;-70
2022/05/03 05:42:51;;;;;;;2.50;1.05;;;;;;;24.14;35.07;99668.31;4301971;33;33383;-72
2022/05/03 05:45:18;;;;;;;1.62;1.20;;;;;;;24.43;34.36;99676.81;4298715;33;34691;-72
2022/05/03 05:47:46;;;;;;;1.35;1.17;;;;;;;23.48;33.50;99673.78;4297234;33;34073;-73
2022/05/03 05:50:13;;;;;;;0.85;0.85;;;;;;;23.15;38.36;99668.91;4299222;33;33366;-72
2022/05/03 05:55:27;;;;;;;1.60;1.20;;;;;;;24.32;33.52;99673.69;4296997;33;34482;-71
2022/05/03 05:57:54;;;;;;;1.30;1.17;;;;;;;24.22;34.84;99669.38;4295687;33;33790;-72
2022/05/03 06:00:21;;;;;;;1.60;1.48;;;;;;;23.64;34.17;99671.19;4297718;33;34024;-73
2022/05/03 06:02:49;;;;;;;1.73;1.40;;;;;;;24.09;34.40;99670.50;4297107;33;33499;-73
2022/05/03 06:05:16;;;;;;;1.98;1.20;;;;;;;24.44;34.72;99672.87;4299791;33;33907;-72
2022/05/03 06:07:44;;;;;;;1.33;1.12;;;;;;;25.11;33.84;99668.78;4299249;33;35052;-69
2022/05/03 06:10:11;;;;;;;1.83;1.37;;;;;;;25.72;31.95;99676.22;4298549;33;33571;-70
2022/05/03 06:12:39;;;;;;;1.65;1.30;;;;;;;24.52;33.18;99675.59;4289877;33;34185;-70
2022/05/03 06:15:07;;;;;;;2.72;1.45;;;;;;;24.55;36.00;99669.34;4302879;33;34211;-72
2022/05/03 06:17:35;;;;;;;2.28;1.30;;;;;;;23.25;37.45;99674.06;4303435;33;35212;-72
2022/05/03 06:20:02;;;;;;;3.72;1.77;;;;;;;23.67;35.88;99670.50;4302662;33;34331;-71
2022/05/03 06:22:30;;;;;;;2.87;1.90;;;;;;;23.22;34.70;99663.69;4303423;33;33304;-71
2022/05/03 06:24:58;;;;;;;1.83;1.10;;;;;;;22.83;37.29;99673.13;4303662;33;34624;-71
2022/05/03 06:27:25;;;;;;;1.10;1.05;;;;;;;23.05;36.65;99667.38;4302859;33;34337;-69
2022/05/03 06:29:52;;;;;;;2.17;1.70;;;;;;;24.04;32.97;99671.53;4302516;33;34794;-67
2022/05/03 06:32:20;;;;;;;1.48;1.27;;;;;;;24.27;32.26;99679.44;4303293;33;33385;-71
2022/05/03 06:34:48;;;;;;;2.22;1.35;;;;;;;24.63;32.09;99677.94;4302677;33;33936;-68
2022/05/03 06:37:17;;;;;;;2.42;1.60;;;;;;;23.92;33.89;99677.00;4303153;33;34011;-70
2022/05/03 06:39:45;;;;;;;1.62;1.52;;;;;;;23.92;34.22;99686.13;4302191;33;34194;-70
2022/05/03 06:42:14;;;;;;;2.65;1.67;;;;;;;25.13;30.95;99680.34;4302986;33;34674;-69
2022/05/03 06:44:42;;;;;;;1.35;1.20;;;;;;;24.30;34.84;99684.31;4303476;33;33856;-71
2022/05/03 06:47:09;;;;;;;2.15;1.40;;;;;;;25.49;30.42;99681.50;4303004;33;33796;-69
2022/05/03 06:49:37;;;;;;;1.75;1.30;;;;;;;26.05;28.87;99677.97;4302588;33;34054;-71
2022/05/03 06:52:04;;;;;;;1.42;1.12;;;;;;;26.45;27.57;99684.59;4303249;33;33645;-70
2022/05/03 06:54:32;;;;;;;1.87;1.20;;;;;;;26.04;28.45;99679.13;4302724;33;34548;-70
2022/05/03 06:56:59;;;;;;;1.83;1.30;;;;;;;26.64;28.97;99681.94;4302943;33;33828;-71
2022/05/03 06:59:27;;;;;;;1.65;1.00;;;;;;;27.12;28.43;99679.91;4302343;33;34014;-70
2022/05/03 07:01:55;;;;;;;1.30;1.20;;;;;;;25.95;28.83;99679.28;4303254;33;34380;-69
2022/05/03 07:04:22;;;;;;;1.30;1.10;;;;;;;27.68;26.92;99673.22;4303270;33;33946;-68
2022/05/03 07:06:50;;;;;;;1.40;1.17;;;;;;;27.40;28.57;99678.97;4303256;33;34191;-69
2022/05/03 07:09:17;;;;;;;1.77;1.10;;;;;;;28.37;26.15;99678.19;4302972;33;34087;-67
2022/05/03 07:11:45;;;;;;;0.90;0.82;;;;;;;27.98;26.64;99676.25;4302725;33;34391;-69
2022/05/03 07:14:12;;;;;;;1.40;1.20;;;;;;;27.74;26.67;99676.53;4303008;33;34002;-67
2022/05/03 07:16:40;;;;;;;1.30;1.10;;;;;;;26.70;30.19;99682.47;4299689;33;35018;-72
2022/05/03 07:24:59;;;;;;;1.45;1.10;;;;;;;26.59;28.21;99679.44;4256268;33;33457;-70
2022/05/03 07:27:28;;;;;;;0.82;0.82;;;;;;;24.87;30.54;99680.69;4247609;33;33668;-71
2022/05/03 07:29:55;;;;;;;1.12;1.02;;;;;;;26.15;27.37;99682.19;4279726;33;34195;-71
2022/05/03 07:32:23;;;;;;;1.90;1.23;;;;;;;26.11;27.26;99684.91;4302548;33;33840;-70
2022/05/03 07:34:51;;;;;;;1.50;1.15;;;;;;;26.34;28.58;99682.31;4302488;33;33810;-71
2022/05/03 07:37:18;;;;;;;1.23;1.12;;;;;;;26.55;28.47;99692.41;4303070;33;34706;-72
2022/05/03 07:39:45;;;;;;;1.48;1.05;;;;;;;27.34;27.12;99680.44;4302376;33;34729;-68
2022/05/03 07:42:14;;;;;;;1.30;0.98;;;;;;;27.16;26.73;99683.59;4302388;33;34413;-69
2022/05/03 07:44:41;;;;;;;1.10;1.00;;;;;;;27.59;25.89;99681.78;4302399;33;34058;-72
2022/05/03 07:47:08;;;;;;;1.20;1.10;;;;;;;26.94;28.38;99687.06;4302528;33;34177;-71
2022/05/03 07:49:36;;;;;;;1.33;1.00;;;;;;;26.24;27.44;99682.03;4302959;33;34006;-71
2022/05/03 07:52:06;;;;;;;1.20;1.10;;;;;;;26.11;30.46;99681.28;4302735;33;33521;-73
2022/05/03 07:54:34;;;;;;;1.15;1.02;;;;;;;24.52;29.74;99677.56;4289878;33;34555;-71
2022/05/03 07:57:02;;;;;;;1.60;1.20;;;;;;;25.48;28.79;99679.84;4302950;33;35175;-70
2022/05/03 07:59:30;;;;;;;1.77;1.17;;;;;;;25.45;28.31;99679.78;4303025;33;34235;-72
2022/05/03 08:01:57;;;;;;;2.10;1.20;;;;;;;25.92;29.28;99685.56;4302309;33;33390;-71
2022/05/03 08:04:31;;;;;;;1.05;0.98;;;;;;;25.29;30.56;99679.66;4303084;33;34563;-69
2022/05/03 08:06:59;;;;;;;1.42;1.15;;;;;;;25.68;28.34;99682.81;4303046;33;33922;-71
2022/05/03 08:09:27;;;;;;;1.20;1.10;;;;;;;25.80;28.42;99680.00;4302619;33;33543;-69
2022/05/03 08:11:55;;;;;;;1.23;0.95;;;;;;;25.54;29.21;99677.66;4302134;33;33206;-68
2022/05/03 08:14:22;;;;;;;1.90;1.30;;;;;;;25.40;30.13;99680.81;4302310;33;33967;-70
2022/05/03 08:16:50;;;;;;;1.52;1.15;;;;;;;25.18;31.79;99679.28;4302494;33;35457;-72
2022/05/03 08:19:17;;;;;;;1.10;1.00;;;;;;;25.20;30.56;99682.56;4288645;33;34297;-72
2022/05/03 08:21:45;;;;;;;0.90;0.90;;;;;;;24.85;29.90;99676.66;4302756;33;33844;-71
2022/05/03 08:24:12;;;;;;;1.40;1.00;;;;;;;24.40;30.31;99677.50;4302890;33;33575;-70
2022/05/03 08:26:40;;;;;;;1.52;0.95;;;;;;;24.29;29.84;99677.94;4300511;33;35163;-71
2022/05/03 08:29:08;;;;;;;1.00;0.93;;;;;;;24.93;30.90;99682.09;4302912;33;34105;-70
2022/05/03 08:31:35;;;;;;;1.90;1.40;;;;;;;25.71;27.85;99685.69;4303137;33;33234;-71
2022/05/03 08:34:03;;;;;;;1.67;1.33;;;;;;;23.70;33.11;99684.50;4302717;33;33922;-73
2022/05/03 08:36:30;;;;;;;1.62;1.17;;;;;;;21.77;33.75;99676.47;4302528;33;34197;-70
2022/05/03 08:42:06;;;;;;;1.55;1.10;;;;;;;22.67;33.25;99675.66;4303225;33;33362;-72
2022/05/03 08:44:34;;;;;;;1.27;1.08;;;;;;;23.04;34.90;99679.56;4302921;33;34590;-71
2022/05/03 08:47:02;;;;;;;1.52;1.20;;;;;;;23.27;33.32;99670.97;4302957;33;34138;-72
2022/05/03 08:49:42;;;;;;;1.00;0.90;;;;;;;24.18;32.17;99673.19;4302694;33;34473;-71
2022/05/03 08:52:11;;;;;;;1.60;1.27;;;;;;;24.84;30.92;99672.25;4303191;33;33533;-70
2022/05/03 08:54:40;;;;;;;1.10;1.00;;;;;;;24.97;30.81;99677.47;4290159;33;34864;-71
2022/05/03 08:57:10;;;;;;;1.08;0.98;;;;;;;25.75;29.61;99678.28;4303161;33;34904;-74
2022/05/03 08:59:38;;;;;;;1.23;1.02;;;;;;;24.87;31.34;99672.38;4302865;33;34354;-72
2022/05/03 09:02:05;;;;;;;1.55;1.10;;;;;;;24.14;31.41;99670.25;4302615;33;34002;-71
2022/05/03 09:04:33;;;;;;;1.00;0.90;;;;;;;24.14;32.21;99670.25;4302805;33;32646;-70
2022/05/03 09:07:20;;;;;;;1.00;0.90;;;;;;;24.75;30.61;99673.19;4302978;33;34162;-72
2022/05/03 09:09:49;;;;;;;1.23;1.10;;;;;;;24.99;30.41;99666.03;4303059;33;34368;-74
2022/05/03 09:12:29;;;;;;;0.98;0.93;;;;;;;24.95;30.50;99670.66;4302386;33;32676;-70
2022/05/03 09:14:59;;;;;;;0.73;0.73;;;;;;;24.82;33.33;99675.41;4302875;33;33875;-70
2022/05/03 09:17:38;;;;;;;1.40;0.90;;;;;;;25.15;31.47;99669.69;4302072;33;34255;-69
2022/05/03 09:26:13;;;;;;;1.05;0.90;;;;;;;24.87;30.58;99657.69;4302593;33;34082;-72
2022/05/03 09:28:55;;;;;;;0.80;0.80;;;;;;;25.04;30.21;99657.47;4289364;33;34157;-70
2022/05/03 09:31:41;;;;;;;1.65;1.30;;;;;;;25.31;30.38;99653.19;4302333;33;35163;-70
2022/05/03 09:34:25;;;;;;;1.05;0.90;;;;;;;25.47;32.31;99658.00;4302636;33;33089;-71
2022/05/03 09:37:02;;;;;;;0.80;0.80;;;;;;;25.75;29.79;99660.81;4302172;33;33443;-71
2022/05/03 09:39:42;;;;;;;1.85;1.27;;;;;;;25.56;30.73;99659.47;4302644;33;34112;-71
2022/05/03 09:42:18;;;;;;;1.67;1.10;;;;;;;25.97;28.05;99656.69;4302603;33;33979;-70
2022/05/03 09:44:55;;;;;;;1.30;1.02;;;;;;;25.67;29.53;99657.00;4302649;33;33503;-71
2022/05/03 09:47:27;;;;;;;1.40;1.10;;;;;;;25.97;28.49;99657.50;4301829;33;34075;-72
2022/05/03 09:49:55;;;;;;;1.35;1.10;;;;;;;25.84;28.68;99649.53;4302421;33;33802;-69
2022/05/03 09:52:32;;;;;;;1.55;1.10;;;;;;;23.92;31.03;99646.53;4302348;33;33916;-72
2022/05/03 09:55:05;;;;;;;0.80;0.80;;;;;;;24.54;29.49;99645.56;4302316;33;34140;-70
2022/05/03 09:57:38;;;;;;;1.10;0.98;;;;;;;24.86;31.06;99640.25;4289468;33;34113;-71
2022/05/03 10:00:10;;;;;;;1.30;1.02;;;;;;;25.77;30.33;99647.38;4302157;33;34218;-70
2022/05/03 10:02:40;;;;;;;1.10;0.93;;;;;;;25.45;27.98;99638.91;4301757;33;35072;-70
2022/05/03 10:05:14;;;;;;;1.23;1.08;;;;;;;25.83;25.38;99636.78;4290003;33;34214;-69
2022/05/03 10:07:45;;;;;;;1.75;1.10;;;;;;;25.52;26.19;99636.31;4301308;33;33617;-68
2022/05/03 10:10:14;;;;;;;1.67;1.30;;;;;;;25.23;27.21;99634.69;4302181;33;34666;-68
2022/05/03 10:12:43;;;;;;;1.08;0.98;;;;;;;24.55;27.01;99629.72;4300435;33;33862;-72
2022/05/03 10:15:12;;;;;;;1.25;0.90;;;;;;;24.56;28.35;99626.59;4302610;33;33291;-73
2022/05/03 10:20:40;;;;;;;1.50;1.30;;;;;;;24.79;28.61;99630.88;4289273;33;33893;-72
2022/05/03 10:23:30;;;;;;;1.60;1.00;;;;;;;24.98;28.36;99631.91;4289413;33;34058;-72
2022/05/03 10:26:09;;;;;;;1.85;1.30;;;;;;;25.61;28.31;99624.25;4301689;33;33444;-71
2022/05/03 10:28:59;;;;;;;1.67;1.33;;;;;;;25.39;28.46;99629.19;4301759;33;34716;-73
2022/05/03 10:31:28;;;;;;;1.55;1.10;;;;;;;24.20;30.81;99616.22;4301657;33;33913;-71
2022/05/03 10:33:57;;;;;;;1.20;1.10;;;;;;;23.40;28.16;99614.53;4289423;33;34245;-72
2022/05/03 10:36:34;;;;;;;1.62;1.10;;;;;;;24.53;27.87;99618.16;4302552;33;34317;-72
2022/05/03 10:39:06;;;;;;;1.15;0.90;;;;;;;25.36;27.02;99616.81;4289537;33;34071;-77
2022/05/03 10:42:00;;;;;;;1.35;1.20;;;;;;;24.86;26.03;99620.00;4297800;33;34952;-73
2022/05/03 10:44:40;;;;;;;1.80;1.10;;;;;;;23.81;28.06;99615.66;4290978;33;34443;-74
2022/05/03 10:47:10;;;;;;;0.95;0.85;;;;;;;24.69;30.31;99623.84;4290718;33;33293;-73
2022/05/03 10:50:12;;;;;;;1.58;1.10;;;;;;;24.97;29.23;99621.97;4290270;33;33620;-79
2022/05/03 10:52:45;;;;;;;1.10;0.90;;;;;;;23.62;29.71;99616.12;4303879;33;34182;-72
2022/05/03 10:55:14;;;;;;;1.48;1.08;;;;;;;22.79;30.92;99622.41;4291002;33;33793;-73
2022/05/03 10:58:19;;;;;;;1.10;1.00;;;;;;;23.20;31.66;99626.41;4303538;33;33328;-73
2022/05/03 11:01:21;;;;;;;0.90;0.90;;;;;;;21.76;34.96;99631.47;4303751;33;34757;-77
2022/05/03 11:03:57;;;;;;;1.98;1.40;;;;;;;21.89;34.42;99624.94;4286199;33;35071;-71
2022/05/03 11:06:25;;;;;;;1.80;1.05;;;;;;;21.83;34.69;99633.75;4289204;33;34586;-69
2022/05/03 11:09:08;;;;;;;3.80;1.50;;;;;;;20.98;37.89;99634.97;4289184;33;33507;-72
2022/05/03 11:11:36;;;;;;;1.52;1.20;;;;;;;20.85;39.15;99635.91;4289254;33;33809;-73
2022/05/03 11:14:04;;;;;;;1.35;1.10;;;;;;;21.26;38.66;99631.94;4289292;33;33860;-72
2022/05/03 11:16:34;;;;;;;1.77;0.95;;;;;;;20.22;39.06;99613.91;4288131;33;34004;-70
2022/05/03 11:19:10;;;;;;;1.05;0.93;;;;;;;20.48;35.84;99618.72;4296325;33;34269;-70
2022/05/03 11:21:38;;;;;;;1.40;1.20;;;;;;;19.76;36.10;99623.38;4303445;33;34622;-69
2022/05/03 11:24:22;;;;;;;1.02;0.93;;;;;;;19.95;35.89;99609.38;4303719;33;34462;-71
2022/05/03 11:27:01;;;;;;;1.10;1.00;;;;;;;19.72;35.58;99605.00;4303477;33;34071;-72
2022/05/03 11:29:29;;;;;;;0.70;0.70;;;;;;;20.13;33.17;99603.97;4303236;33;34744;-68
2022/05/03 11:31:59;;;;;;;9.13;1.00;;;;;;;20.48;32.14;99607.72;4302769;33;33889;-69
2022/05/03 11:34:27;;;;;;;1.10;0.90;;;;;;;20.86;30.17;99602.50;4289921;33;34293;-72
2022/05/03 11:36:55;;;;;;;1.27;1.15;;;;;;;20.76;30.48;99608.31;4290715;33;33626;-71
2022/05/03 11:39:23;;;;;;;1.00;0.90;;;;;;;20.94;32.75;99597.31;4303496;33;33548;-72
2022/05/03 11:41:50;;;;;;;1.10;1.00;;;;;;;20.25;35.12;99590.44;4303129;33;33904;-79
2022/05/03 11:44:18;;;;;;;1.02;0.93;;;;;;;20.20;36.50;99594.12;4290007;33;33930;-71
2022/05/03 11:46:48;;;;;;;0.88;0.82;;;;;;;19.82;36.87;99591.81;4303721;33;33954;-73
2022/05/03 11:49:17;;;;;;;1.20;0.90;;;;;;;19.51;37.34;99593.69;4302591;33;33772;-72
2022/05/03 11:57:22;;;;;;;1.12;0.85;;;;;;;19.97;36.80;99590.59;4296311;33;34092;-70
2022/05/03 11:59:51;;;;;;;1.12;0.90;;;;;;;20.04;35.66;99579.13;4292899;33;34388;-72
2022/05/03 12:02:36;;;;;;;1.20;0.98;;;;;;;20.82;34.08;99587.75;4271888;33;33975;-66
2022/05/03 12:05:04;;;;;;;1.17;0.80;;;;;;;21.19;33.37;99580.00;4283468;33;35100;-74
2022/05/03 12:07:36;;;;;;;0.77;0.77;;;;;;;21.51;30.04;99577.88;4294677;33;33589;-70
2022/05/03 12:10:20;;;;;;;1.05;0.95;;;;;;;21.31;29.67;99576.56;4290370;33;33436;-66
2022/05/03 12:13:06;;;;;;;0.85;0.85;;;;;;;21.54;30.30;99574.50;4293366;33;34362;-73
2022/05/03 12:15:36;;;;;;;0.90;0.77;;;;;;;21.71;29.72;99568.16;4300436;33;34172;-72
2022/05/03 12:18:20;;;;;;;1.73;1.00;;;;;;;22.70;29.21;99570.72;4302626;33;34565;-70
2022/05/03 12:20:57;;;;;;;0.90;0.85;;;;;;;23.57;27.50;99565.69;4301940;33;34127;-72
2022/05/03 12:23:36;;;;;;;0.80;0.80;;;;;;;23.87;29.14;99583.81;4302439;33;33904;-72
2022/05/03 12:26:25;;;;;;;1.67;1.12;;;;;;;23.81;30.37;99573.31;4302207;33;34225;-71
2022/05/03 12:28:55;;;;;;;1.00;0.90;;;;;;;24.05;29.02;99578.91;4288334;33;33831;-69
2022/05/03 12:31:28;;;;;;;0.70;0.70;;;;;;;23.81;28.91;99571.34;4288066;33;33447;-66